Time;durP1;ratioP1;P1;durP2;ratioP2;P2;SDS_P1;SDS_P2;PMS_P1;PMS_P2;Temp;Humidity;BMP_temperature;BMP_pressure;BME280_temperature;BME280_humidity;BME280_pressure;Samples;Min_cycle;Max_cycle;Signal;HPM_P1;HPM_P2
2023/12/29 00:01:43;;;;;;;19.65;10.30;;;;;;;4.30;100.00;95155.03;5075435;28;20032;-84
2023/12/29 00:04:08;;;;;;;20.10;9.60;;;;;;;4.52;100.00;95158.91;5076736;28;20107;-84
2023/12/29 00:06:37;;;;;;;17.05;7.25;;;;;;;4.29;100.00;95156.81;5075309;28;20122;-84
2023/12/29 00:09:03;;;;;;;22.98;10.30;;;;;;;4.32;100.00;95148.66;5075307;28;20415;-84
2023/12/29 00:11:28;;;;;;;33.65;14.77;;;;;;;4.42;100.00;95152.56;5076529;28;20032;-84
2023/12/29 00:13:54;;;;;;;31.90;16.13;;;;;;;4.46;100.00;95153.75;5076444;28;20050;-83
2023/12/29 00:16:19;;;;;;;39.42;18.88;;;;;;;4.50;100.00;95149.72;5076355;28;20025;-83
2023/12/29 00:18:44;;;;;;;38.17;15.88;;;;;;;4.65;100.00;95150.22;5075130;28;20032;-83
2023/12/29 00:21:10;;;;;;;35.20;18.27;;;;;;;4.54;100.00;95140.53;5076392;28;20035;-83
2023/12/29 00:23:35;;;;;;;50.38;21.45;;;;;;;4.35;100.00;95140.44;5075173;28;20032;-84
2023/12/29 00:26:01;;;;;;;42.28;19.23;;;;;;;4.37;100.00;95138.44;5075214;28;20039;-84
2023/12/29 00:28:26;;;;;;;20.98;10.63;;;;;;;4.28;100.00;95136.28;5075085;28;20029;-84
2023/12/29 00:30:52;;;;;;;31.63;14.82;;;;;;;4.26;100.00;95123.50;5076099;28;20141;-83
2023/12/29 00:33:17;;;;;;;19.23;8.40;;;;;;;4.31;100.00;95123.72;5058514;28;20430;-83
2023/12/29 00:35:42;;;;;;;22.23;10.35;;;;;;;4.39;100.00;95133.03;5075015;28;20082;-83
2023/12/29 00:38:08;;;;;;;19.75;9.32;;;;;;;4.31;100.00;95131.50;5074844;28;20086;-83
2023/12/29 00:40:33;;;;;;;13.48;7.30;;;;;;;4.16;100.00;95139.53;5058572;28;20029;-83
2023/12/29 00:43:02;;;;;;;15.40;7.65;;;;;;;4.29;100.00;95130.88;5058545;28;20092;-83
2023/12/29 00:45:36;;;;;;;14.48;7.25;;;;;;;4.38;100.00;95126.25;5076156;28;20027;-84
2023/12/29 00:48:01;;;;;;;14.57;7.07;;;;;;;4.40;100.00;95134.63;5075064;28;20029;-83
2023/12/29 00:50:27;;;;;;;20.70;9.38;;;;;;;4.24;100.00;95135.91;5074940;28;20027;-83
2023/12/29 00:52:52;;;;;;;16.90;7.22;;;;;;;4.08;100.00;95131.97;5058522;28;20119;-83
2023/12/29 00:55:19;;;;;;;14.13;8.15;;;;;;;4.24;100.00;95126.34;5074866;28;20128;-83
2023/12/29 00:57:45;;;;;;;17.48;7.60;;;;;;;4.13;100.00;95139.16;5074708;28;20028;-83
2023/12/29 01:00:12;;;;;;;19.40;8.10;;;;;;;4.04;100.00;95133.41;5094805;28;20034;-83
2023/12/29 01:02:38;;;;;;;18.20;7.50;;;;;;;4.07;100.00;95135.56;5082187;28;20026;-83
2023/12/29 01:05:04;;;;;;;17.10;8.25;;;;;;;4.01;100.00;95132.00;5098827;28;20020;-84
2023/12/29 01:07:29;;;;;;;17.08;8.63;;;;;;;4.11;100.00;95126.41;5098877;28;20031;-83
2023/12/29 01:09:55;;;;;;;16.20;8.13;;;;;;;4.18;100.00;95124.56;5099812;28;20023;-83
2023/12/29 01:12:20;;;;;;;12.70;7.25;;;;;;;4.13;100.00;95127.00;5098642;28;20441;-83
2023/12/29 01:14:45;;;;;;;19.58;10.15;;;;;;;4.09;100.00;95123.22;5099687;28;20035;-83
2023/12/29 01:17:11;;;;;;;30.55;12.90;;;;;;;4.18;100.00;95131.56;5098517;28;20039;-83
2023/12/29 01:19:36;;;;;;;20.63;11.23;;;;;;;4.06;100.00;95123.63;5098516;28;20024;-83
2023/12/29 01:22:02;;;;;;;23.00;10.88;;;;;;;4.09;100.00;95131.00;5098460;28;20081;-83
2023/12/29 01:24:27;;;;;;;25.58;11.85;;;;;;;3.98;100.00;95122.06;5098564;28;20020;-83
2023/12/29 01:26:53;;;;;;;21.95;10.57;;;;;;;4.14;100.00;95125.97;5098311;28;20317;-83
2023/12/29 01:29:18;;;;;;;20.67;9.50;;;;;;;4.08;100.00;95125.00;5098321;28;20052;-83
2023/12/29 01:31:43;;;;;;;21.75;9.90;;;;;;;4.00;100.00;95120.06;5098337;28;20020;-83
2023/12/29 01:34:09;;;;;;;21.67;9.90;;;;;;;4.20;100.00;95129.56;5098201;28;20020;-83
2023/12/29 01:36:34;;;;;;;21.80;9.48;;;;;;;4.02;100.00;95122.44;5099352;28;20148;-83
2023/12/29 01:39:02;;;;;;;19.38;7.53;;;;;;;4.13;100.00;95126.19;5098141;28;20081;-83
2023/12/29 01:41:27;;;;;;;17.40;7.88;;;;;;;4.14;100.00;95122.59;5099310;28;20024;-83
2023/12/29 01:44:02;;;;;;;21.65;9.40;;;;;;;4.16;100.00;95130.94;5099219;28;20024;-83
2023/12/29 01:46:33;;;;;;;16.20;8.13;;;;;;;4.07;100.00;95128.59;5098313;28;20341;-83
2023/12/29 01:48:59;;;;;;;14.13;7.50;;;;;;;4.09;100.00;95116.22;5097880;28;20345;-83
2023/12/29 01:51:26;;;;;;;20.05;8.27;;;;;;;4.26;100.00;95122.75;5097997;28;20495;-83
2023/12/29 01:53:52;;;;;;;16.23;7.28;;;;;;;4.23;100.00;95126.53;5080997;28;20085;-83
2023/12/29 01:56:18;;;;;;;17.75;7.28;;;;;;;4.04;100.00;95116.06;5080991;28;20429;-83
2023/12/29 01:58:45;;;;;;;14.77;6.95;;;;;;;3.95;100.00;95112.09;5081009;28;20114;-83
2023/12/29 02:01:10;;;;;;;20.20;7.40;;;;;;;4.05;100.00;95107.28;5081237;28;20024;-83
2023/12/29 02:03:36;;;;;;;13.45;6.63;;;;;;;3.98;100.00;95111.69;5081179;28;20038;-84
2023/12/29 02:06:02;;;;;;;19.23;6.72;;;;;;;3.97;100.00;95110.09;5081027;28;20020;-83
2023/12/29 02:08:28;;;;;;;13.48;5.88;;;;;;;3.95;100.00;95106.91;5097486;28;20028;-83
2023/12/29 02:10:54;;;;;;;13.80;6.53;;;;;;;3.96;100.00;95111.09;5080877;28;20023;-84
2023/12/29 02:13:21;;;;;;;16.10;6.10;;;;;;;3.89;100.00;95116.31;5096678;28;20114;-84
2023/12/29 02:15:47;;;;;;;12.50;6.32;;;;;;;3.87;100.00;95100.19;5097612;28;20123;-83
2023/12/29 02:18:17;;;;;;;18.15;5.93;;;;;;;3.95;100.00;95101.75;5097356;28;20024;-84
2023/12/29 02:20:43;;;;;;;11.18;6.03;;;;;;;4.00;100.00;95108.91;5097391;28;20028;-84
2023/12/29 02:23:09;;;;;;;10.88;5.75;;;;;;;4.03;100.00;95111.88;5097293;28;20028;-84
2023/12/29 02:25:34;;;;;;;10.52;5.82;;;;;;;4.15;100.00;95109.41;5080676;28;20109;-84
2023/12/29 02:28:17;;;;;;;16.42;6.43;;;;;;;4.14;100.00;95107.03;5098228;28;20028;-84
2023/12/29 02:30:48;;;;;;;11.63;5.47;;;;;;;4.13;100.00;95108.84;5089895;28;20412;-84
2023/12/29 02:33:19;;;;;;;12.88;5.97;;;;;;;4.04;100.00;95094.50;5097309;28;20077;-84
2023/12/29 02:35:46;;;;;;;13.20;5.53;;;;;;;4.08;100.00;95086.09;5096943;28;20020;-83
2023/12/29 02:38:12;;;;;;;10.45;5.35;;;;;;;4.20;100.00;95083.63;5072146;28;20024;-83
2023/12/29 02:40:38;;;;;;;13.70;6.13;;;;;;;4.10;100.00;95078.91;5080050;28;20399;-84
2023/12/29 02:43:03;;;;;;;12.23;5.60;;;;;;;4.10;100.00;95084.09;5078834;28;20036;-84
2023/12/29 02:45:29;;;;;;;33.20;14.32;;;;;;;4.15;100.00;95083.47;5084459;28;20016;-84
2023/12/29 02:47:54;;;;;;;18.73;6.70;;;;;;;3.94;100.00;95089.78;5086428;28;20020;-84
2023/12/29 02:50:20;;;;;;;10.73;5.50;;;;;;;4.02;100.00;95079.19;5091092;28;20063;-84
2023/12/29 02:52:45;;;;;;;11.65;5.68;;;;;;;3.92;100.00;95071.81;5089468;28;20119;-84
2023/12/29 02:55:13;;;;;;;12.07;4.32;;;;;;;3.84;100.00;95068.69;5095973;28;20063;-84
2023/12/29 02:57:39;;;;;;;12.98;4.90;;;;;;;3.91;100.00;95066.88;5096733;28;20078;-84
2023/12/29 03:00:05;;;;;;;10.23;4.72;;;;;;;3.74;100.00;95064.75;5096529;28;20032;-84
2023/12/29 03:02:32;;;;;;;9.70;4.45;;;;;;;3.85;100.00;95070.28;5095649;28;20346;-84
2023/12/29 03:04:58;;;;;;;14.55;5.60;;;;;;;3.85;100.00;95059.91;5090304;28;20024;-84
2023/12/29 03:07:23;;;;;;;17.10;5.45;;;;;;;3.74;100.00;95062.16;5096442;28;20034;-84
2023/12/29 03:09:48;;;;;;;9.88;5.60;;;;;;;3.68;100.00;95060.38;5097513;28;20024;-84
2023/12/29 03:12:14;;;;;;;10.43;5.10;;;;;;;3.67;100.00;95051.00;5088507;28;20086;-84
2023/12/29 03:14:39;;;;;;;14.63;5.85;;;;;;;3.67;100.00;95051.00;5097187;28;20036;-84
2023/12/29 03:17:05;;;;;;;13.80;5.40;;;;;;;3.67;100.00;95049.22;5097451;28;20028;-83
2023/12/29 03:19:30;;;;;;;10.50;5.22;;;;;;;3.72;100.00;95038.22;5096107;28;20028;-84
2023/12/29 03:21:56;;;;;;;12.77;4.88;;;;;;;3.66;100.00;95041.66;5080457;28;20047;-84
2023/12/29 03:24:21;;;;;;;7.93;4.80;;;;;;;3.64;100.00;95046.25;5059618;28;20031;-84
2023/12/29 03:26:46;;;;;;;9.75;4.45;;;;;;;3.67;100.00;95044.06;5075761;28;20078;-84
2023/12/29 03:29:12;;;;;;;12.80;5.80;;;;;;;3.86;100.00;95045.94;5077750;28;20044;-84
2023/12/29 03:31:38;;;;;;;7.90;4.70;;;;;;;3.88;100.00;95044.72;5060730;28;20506;-83
2023/12/29 03:34:03;;;;;;;10.82;4.70;;;;;;;3.76;100.00;95030.84;5075868;28;20417;-83
2023/12/29 03:36:29;;;;;;;8.35;4.15;;;;;;;3.72;100.00;95038.22;5075718;28;20021;-83
2023/12/29 03:38:54;;;;;;;11.85;4.93;;;;;;;3.81;100.00;95026.63;5076972;28;20039;-84
2023/12/29 03:41:20;;;;;;;9.85;5.13;;;;;;;3.91;100.00;95018.38;5075530;28;20169;-83
2023/12/29 03:43:45;;;;;;;17.00;4.60;;;;;;;3.93;100.00;95015.59;5076739;28;20036;-83
2023/12/29 03:46:21;;;;;;;9.95;4.28;;;;;;;3.91;100.00;95018.38;5085148;28;20054;-84
2023/12/29 03:48:47;;;;;;;8.90;4.85;;;;;;;3.90;100.00;95016.78;5079064;28;20123;-84
2023/12/29 03:51:13;;;;;;;10.50;3.78;;;;;;;3.82;100.00;95017.06;5095835;28;20077;-84
2023/12/29 03:53:38;;;;;;;9.00;4.25;;;;;;;3.70;100.00;95013.53;5076451;28;20024;-83
2023/12/29 03:56:08;;;;;;;8.98;4.60;;;;;;;3.65;100.00;95007.16;5058930;28;20039;-83
2023/12/29 03:58:33;;;;;;;11.30;4.35;;;;;;;3.77;100.00;95004.72;5075220;28;20020;-83
2023/12/29 04:00:59;;;;;;;9.20;4.38;;;;;;;3.72;100.00;95003.75;5075295;28;20032;-83
2023/12/29 04:03:24;;;;;;;7.82;4.07;;;;;;;3.62;100.00;94999.03;5095085;28;20024;-83
2023/12/29 04:05:50;;;;;;;8.10;3.78;;;;;;;3.87;100.00;95003.44;5095558;28;20016;-83
2023/12/29 04:08:15;;;;;;;7.95;3.92;;;;;;;3.83;100.00;94992.72;5095417;28;20058;-83
2023/12/29 04:10:41;;;;;;;9.95;4.13;;;;;;;3.77;100.00;94999.53;5088627;28;20385;-84
2023/12/29 04:13:06;;;;;;;7.22;3.95;;;;;;;3.88;100.00;94994.69;5068206;28;20032;-84
2023/12/29 04:15:32;;;;;;;9.63;4.38;;;;;;;3.65;100.00;94985.66;5075269;28;20029;-84
2023/12/29 04:17:57;;;;;;;11.00;4.68;;;;;;;3.65;100.00;94998.59;5081206;28;20314;-84
2023/12/29 04:20:24;;;;;;;11.82;3.97;;;;;;;3.49;100.00;94995.50;5095474;28;20016;-84
2023/12/29 04:22:49;;;;;;;9.05;4.88;;;;;;;3.50;100.00;94986.72;5078956;28;20058;-84
2023/12/29 04:25:15;;;;;;;13.32;4.65;;;;;;;3.61;100.00;94997.44;5094070;28;20024;-84
2023/12/29 04:27:41;;;;;;;11.82;5.93;;;;;;;3.60;100.00;94983.66;5076272;28;20085;-84
2023/12/29 04:30:07;;;;;;;13.07;5.10;;;;;;;3.64;100.00;94984.06;5058703;28;20027;-84
2023/12/29 04:32:32;;;;;;;13.15;5.78;;;;;;;3.61;100.00;94993.03;5075010;28;20024;-84
2023/12/29 04:34:58;;;;;;;10.85;4.35;;;;;;;3.54;100.00;94985.28;5093882;28;20327;-84
2023/12/29 04:37:23;;;;;;;10.27;4.68;;;;;;;3.42;100.00;94979.16;5099239;28;20084;-84
2023/12/29 04:39:49;;;;;;;10.32;4.75;;;;;;;3.49;100.00;94987.72;5099385;28;20047;-84
2023/12/29 04:42:14;;;;;;;10.20;4.13;;;;;;;3.50;100.00;94978.94;5086249;28;20024;-84
2023/12/29 04:44:40;;;;;;;12.02;5.57;;;;;;;3.62;100.00;94973.09;5078949;28;20066;-84
2023/12/29 04:47:05;;;;;;;9.77;5.03;;;;;;;3.63;100.00;94978.06;5078764;28;20032;-84
2023/12/29 04:49:30;;;;;;;12.65;4.75;;;;;;;3.57;100.00;94970.31;5067896;28;20074;-84
2023/12/29 04:51:56;;;;;;;6.93;4.25;;;;;;;3.63;100.00;94969.50;5078984;28;20052;-84
2023/12/29 04:54:21;;;;;;;8.70;4.90;;;;;;;3.59;100.00;94965.75;5078668;28;20330;-84
2023/12/29 04:56:47;;;;;;;13.82;4.65;;;;;;;3.62;100.00;94966.13;5078129;28;20021;-84
2023/12/29 04:59:12;;;;;;;8.10;4.35;;;;;;;3.81;100.00;94972.19;5079790;28;20024;-83
2023/12/29 05:01:37;;;;;;;11.85;4.40;;;;;;;3.77;100.00;94965.03;5078573;28;20024;-83
2023/12/29 05:04:03;;;;;;;7.85;3.42;;;;;;;3.78;100.00;94967.44;5078549;28;20030;-84
2023/12/29 05:06:28;;;;;;;8.90;3.97;;;;;;;3.77;100.00;94962.44;5078705;28;20032;-83
2023/12/29 05:08:54;;;;;;;8.05;4.20;;;;;;;3.76;100.00;94960.84;5078308;28;20037;-83
2023/12/29 05:11:19;;;;;;;10.20;4.03;;;;;;;3.62;100.00;94967.94;5079574;28;20485;-83
2023/12/29 05:13:45;;;;;;;6.00;3.20;;;;;;;3.65;100.00;94967.50;5095907;28;20031;-84
2023/12/29 05:16:10;;;;;;;10.30;4.43;;;;;;;3.87;100.00;94965.38;5098482;28;20032;-84
2023/12/29 05:18:36;;;;;;;8.25;4.38;;;;;;;3.77;100.00;94973.63;5099705;28;20431;-83
2023/12/29 05:21:01;;;;;;;7.80;3.95;;;;;;;3.76;100.00;94972.03;5086456;28;20040;-84
2023/12/29 05:23:26;;;;;;;8.02;3.72;;;;;;;3.67;100.00;94966.31;5079363;28;20032;-83
2023/12/29 05:25:54;;;;;;;7.53;4.47;;;;;;;3.77;100.00;94965.84;5061706;28;20020;-83
2023/12/29 05:28:19;;;;;;;5.72;3.75;;;;;;;3.57;100.00;94973.72;5086335;28;20046;-84
2023/12/29 05:30:45;;;;;;;5.82;3.15;;;;;;;3.67;100.00;94976.66;5098506;28;20035;-83
2023/12/29 05:33:10;;;;;;;6.25;3.45;;;;;;;3.63;100.00;94978.06;5098190;28;20050;-83
2023/12/29 05:35:36;;;;;;;7.72;3.55;;;;;;;3.72;100.00;94977.84;5098153;28;20031;-84
2023/12/29 05:38:01;;;;;;;11.13;3.90;;;;;;;3.73;100.00;94974.22;5079129;28;20035;-84
2023/12/29 05:40:26;;;;;;;6.70;4.05;;;;;;;3.75;100.00;94975.63;5077818;28;20341;-83
2023/12/29 05:42:52;;;;;;;10.18;3.55;;;;;;;3.73;100.00;94971.66;5079066;28;20081;-84
2023/12/29 05:45:17;;;;;;;7.78;3.80;;;;;;;3.76;100.00;94977.22;5078937;28;20032;-84
2023/12/29 05:47:43;;;;;;;11.05;4.60;;;;;;;3.76;100.00;94972.03;5077242;28;20541;-84
2023/12/29 05:50:08;;;;;;;10.90;4.63;;;;;;;3.80;100.00;94973.19;5097907;28;20088;-84
2023/12/29 05:52:34;;;;;;;7.50;4.38;;;;;;;3.69;100.00;94973.84;5097996;28;20028;-84
2023/12/29 05:54:59;;;;;;;8.82;4.45;;;;;;;3.67;100.00;94983.63;5097860;28;20084;-84
2023/12/29 05:57:25;;;;;;;11.65;4.85;;;;;;;3.71;100.00;94984.78;5098825;28;20043;-84
2023/12/29 05:59:50;;;;;;;5.55;3.15;;;;;;;3.95;100.00;94979.88;5098973;28;20028;-84
2023/12/29 06:02:16;;;;;;;6.57;3.65;;;;;;;3.96;100.00;94984.06;5097742;28;20059;-84
2023/12/29 06:04:41;;;;;;;6.80;3.20;;;;;;;4.16;100.00;94986.50;5098862;28;20027;-84
2023/12/29 06:07:07;;;;;;;6.15;2.92;;;;;;;4.00;100.00;94979.25;5082984;28;20028;-84
2023/12/29 06:09:32;;;;;;;9.48;3.28;;;;;;;4.02;100.00;94988.41;5077293;28;20036;-84
2023/12/29 06:11:57;;;;;;;7.25;2.58;;;;;;;4.34;100.00;94983.19;5077251;28;20037;-84
2023/12/29 06:14:23;;;;;;;8.07;2.75;;;;;;;4.27;100.00;94981.66;5079746;28;20085;-84
2023/12/29 06:16:48;;;;;;;3.25;2.20;;;;;;;4.08;100.00;94984.16;5087466;28;20036;-84
2023/12/29 06:19:14;;;;;;;3.85;2.47;;;;;;;3.99;100.00;94982.84;5078316;28;20029;-84
2023/12/29 06:21:43;;;;;;;9.57;2.40;;;;;;;4.06;100.00;94981.00;5077172;28;20032;-84
2023/12/29 06:24:09;;;;;;;5.57;2.97;;;;;;;3.77;100.00;94978.00;5082439;28;20032;-84
2023/12/29 06:26:35;;;;;;;3.97;2.60;;;;;;;3.74;100.00;94975.81;5098458;28;20119;-84
2023/12/29 06:29:00;;;;;;;4.78;2.58;;;;;;;3.71;100.00;94971.84;5097105;28;20038;-84
2023/12/29 06:31:26;;;;;;;10.00;2.80;;;;;;;3.65;100.00;94967.50;5098372;28;20097;-84
2023/12/29 06:33:51;;;;;;;6.70;2.88;;;;;;;3.61;100.00;94974.13;5084765;28;20031;-84
2023/12/29 06:36:17;;;;;;;8.73;3.05;;;;;;;3.62;100.00;94973.09;5087850;28;20453;-85
2023/12/29 06:38:45;;;;;;;5.35;3.00;;;;;;;3.73;100.00;94982.81;5074488;28;20051;-84
2023/12/29 06:41:11;;;;;;;7.65;4.18;;;;;;;3.77;100.00;94976.22;5096040;28;20031;-84
2023/12/29 06:43:37;;;;;;;13.32;4.80;;;;;;;3.71;100.00;94982.22;5088995;28;20035;-84
2023/12/29 06:46:02;;;;;;;11.35;4.22;;;;;;;3.74;100.00;94981.81;5097151;28;20024;-85
2023/12/29 06:48:28;;;;;;;5.00;2.75;;;;;;;3.84;100.00;94985.72;5080020;28;20058;-85
2023/12/29 06:50:53;;;;;;;6.07;3.50;;;;;;;3.79;100.00;94983.75;5089730;28;20029;-85
2023/12/29 06:53:19;;;;;;;6.45;2.40;;;;;;;3.84;100.00;94986.53;5096457;28;20040;-85
2023/12/29 06:55:44;;;;;;;8.77;2.58;;;;;;;3.85;100.00;94984.72;5079680;28;20089;-85
2023/12/29 06:58:10;;;;;;;7.78;3.08;;;;;;;3.82;100.00;94983.38;5096289;28;20433;-85
2023/12/29 07:00:36;;;;;;;4.95;2.60;;;;;;;4.02;100.00;94991.00;5095545;28;20077;-85
2023/12/29 07:03:01;;;;;;;5.75;2.92;;;;;;;4.02;100.00;94987.59;5096628;28;20032;-85
2023/12/29 07:05:27;;;;;;;4.70;2.90;;;;;;;3.92;100.00;94977.72;5096595;28;20024;-85
2023/12/29 07:07:52;;;;;;;9.30;2.67;;;;;;;3.88;100.00;94985.09;5096314;28;20031;-84
2023/12/29 07:10:18;;;;;;;4.32;2.85;;;;;;;4.13;100.00;94991.31;5082497;28;20418;-85
2023/12/29 07:12:43;;;;;;;3.95;2.30;;;;;;;4.11;100.00;94986.38;5079586;28;20055;-85
2023/12/29 07:15:09;;;;;;;8.93;2.75;;;;;;;4.24;100.00;94985.44;5096170;28;20035;-84
2023/12/29 07:17:35;;;;;;;6.07;2.63;;;;;;;4.26;100.00;94988.63;5095174;28;20418;-87
2023/12/29 07:20:00;;;;;;;6.50;2.63;;;;;;;4.30;100.00;94994.97;5080347;28;20033;-84
2023/12/29 07:22:26;;;;;;;7.32;2.80;;;;;;;4.32;100.00;94992.97;5116773;28;20042;-84
2023/12/29 07:24:53;;;;;;;7.65;2.88;;;;;;;4.28;100.00;94997.00;5117666;28;20059;-84
2023/12/29 07:27:19;;;;;;;5.80;2.72;;;;;;;4.36;100.00;94999.34;5097178;28;20031;-84
2023/12/29 07:29:44;;;;;;;6.90;2.58;;;;;;;4.52;100.00;94999.81;5096070;28;20045;-84
2023/12/29 07:32:10;;;;;;;4.80;2.58;;;;;;;4.57;100.00;95010.31;5096006;28;20034;-84
2023/12/29 07:34:35;;;;;;;6.32;3.10;;;;;;;4.62;100.00;95007.09;5073799;28;20040;-84
2023/12/29 07:37:00;;;;;;;4.75;2.53;;;;;;;4.69;100.00;95007.84;5075341;28;20032;-84
2023/12/29 07:39:26;;;;;;;6.93;2.90;;;;;;;4.87;100.00;95014.84;5059313;28;20081;-84
2023/12/29 07:41:51;;;;;;;5.35;2.30;;;;;;;4.84;100.00;95019.69;5075598;28;20073;-84
2023/12/29 07:44:17;;;;;;;4.25;2.33;;;;;;;4.96;100.00;95015.38;5076026;28;20032;-84
2023/12/29 07:46:44;;;;;;;9.93;2.83;;;;;;;4.99;100.00;95014.94;5075048;28;20032;-84
2023/12/29 07:49:10;;;;;;;3.38;2.20;;;;;;;5.07;100.00;95013.88;5062633;28;20036;-84
2023/12/29 07:51:42;;;;;;;4.85;2.35;;;;;;;5.21;100.00;95020.50;5076013;28;20033;-84
2023/12/29 07:54:08;;;;;;;6.35;2.42;;;;;;;5.27;100.00;95021.44;5088445;28;20027;-84
2023/12/29 07:56:34;;;;;;;3.97;2.30;;;;;;;5.31;100.00;95027.78;5093603;28;20032;-84
2023/12/29 07:58:59;;;;;;;4.82;2.38;;;;;;;5.45;100.00;95025.03;5087965;28;20043;-84
2023/12/29 08:01:25;;;;;;;5.25;2.85;;;;;;;5.51;100.00;95024.97;5095606;28;20111;-84
2023/12/29 08:03:51;;;;;;;4.93;3.08;;;;;;;5.57;100.00;95028.50;5095610;28;20028;-84
2023/12/29 08:06:16;;;;;;;6.68;2.70;;;;;;;5.51;100.00;95030.16;5096975;28;20077;-84
2023/12/29 08:08:42;;;;;;;5.25;2.75;;;;;;;5.66;100.00;95029.75;5096258;28;20031;-84
2023/12/29 08:11:17;;;;;;;8.20;2.95;;;;;;;5.79;100.00;95035.81;5088405;28;20035;-84
2023/12/29 08:13:47;;;;;;;4.28;2.40;;;;;;;5.68;100.00;95037.34;5078803;28;20341;-84
2023/12/29 08:16:13;;;;;;;5.57;2.55;;;;;;;5.71;100.00;95042.09;5095267;28;20039;-83
2023/12/29 08:18:38;;;;;;;4.85;2.72;;;;;;;5.85;100.00;95047.16;5094719;28;20442;-84
2023/12/29 08:21:04;;;;;;;8.00;2.90;;;;;;;5.77;100.00;95051.66;5095305;28;20353;-83
2023/12/29 08:23:29;;;;;;;5.57;3.05;;;;;;;5.86;100.00;95039.13;5078735;28;20074;-84
2023/12/29 08:25:58;;;;;;;5.72;2.92;;;;;;;5.92;100.00;95047.88;5095526;28;20028;-84
2023/12/29 08:28:23;;;;;;;5.75;2.60;;;;;;;5.89;100.00;95037.91;5082170;28;20028;-84
2023/12/29 08:30:49;;;;;;;3.83;2.65;;;;;;;5.97;100.00;95047.97;5079585;28;20114;-84
2023/12/29 08:33:14;;;;;;;4.10;3.00;;;;;;;5.89;100.00;95043.88;5078499;28;20031;-84
2023/12/29 08:35:40;;;;;;;5.35;2.78;;;;;;;6.03;100.00;95046.34;5086966;28;20367;-86
2023/12/29 08:38:06;;;;;;;6.13;3.10;;;;;;;6.03;100.00;95047.16;5057964;28;20035;-85
2023/12/29 08:40:32;;;;;;;7.30;3.47;;;;;;;6.07;100.00;95050.88;5058226;28;20036;-84
2023/12/29 08:42:57;;;;;;;4.63;2.67;;;;;;;6.23;100.00;95041.63;5095228;28;20031;-85
2023/12/29 08:45:23;;;;;;;7.88;2.85;;;;;;;6.28;100.00;95050.59;5070091;28;20059;-85
2023/12/29 08:47:48;;;;;;;7.07;2.60;;;;;;;6.30;100.00;95046.75;5057623;28;20033;-85
2023/12/29 08:50:15;;;;;;;6.22;2.40;;;;;;;6.40;100.00;95063.63;5074912;28;20487;-85
2023/12/29 08:52:40;;;;;;;4.53;3.03;;;;;;;6.44;100.00;95056.97;5077887;28;20019;-84
2023/12/29 08:55:06;;;;;;;4.63;2.70;;;;;;;6.56;100.00;95065.59;5079663;28;20039;-85
2023/12/29 08:57:31;;;;;;;7.10;2.92;;;;;;;6.66;100.00;95067.63;5057852;28;20182;-85
2023/12/29 08:59:57;;;;;;;5.03;3.05;;;;;;;6.76;100.00;95067.09;5074856;28;20028;-85
2023/12/29 09:02:22;;;;;;;4.93;3.38;;;;;;;6.85;100.00;95076.16;5077035;28;20025;-85
2023/12/29 09:04:48;;;;;;;5.78;3.63;;;;;;;6.77;100.00;95081.72;5095016;28;20074;-85
2023/12/29 09:07:13;;;;;;;8.93;3.90;;;;;;;6.87;100.00;95081.16;5094963;28;20028;-84
2023/12/29 09:09:39;;;;;;;5.47;3.45;;;;;;;6.96;100.00;95085.00;5095023;28;20437;-85
2023/12/29 09:12:04;;;;;;;52.33;15.88;;;;;;;6.96;100.00;95084.19;5094683;28;20077;-84
2023/12/29 09:14:32;;;;;;;78.18;27.33;;;;;;;6.86;100.00;95077.72;5094897;28;20028;-87
2023/12/29 09:16:58;;;;;;;270.73;98.03;;;;;;;6.91;100.00;95085.69;5094739;28;20110;-86
2023/12/29 09:19:23;;;;;;;452.52;170.23;;;;;;;7.03;100.00;95080.47;5094814;28;20103;-85
2023/12/29 09:21:49;;;;;;;267.58;102.78;;;;;;;7.08;100.00;95080.56;5096502;28;20404;-86
2023/12/29 09:24:14;;;;;;;43.42;18.33;;;;;;;7.14;100.00;95091.13;5098404;28;20330;-87
2023/12/29 09:26:39;;;;;;;162.30;60.67;;;;;;;7.15;100.00;95084.88;5071701;28;20358;-86
2023/12/29 09:29:05;;;;;;;58.88;27.50;;;;;;;7.25;100.00;95081.69;5078648;28;20030;-87
2023/12/29 09:31:31;;;;;;;25.42;14.75;;;;;;;7.40;100.00;95091.69;5078469;28;20024;-86
2023/12/29 09:33:56;;;;;;;52.92;33.30;;;;;;;7.41;100.00;95090.66;5078016;28;20032;-87
2023/12/29 09:36:22;;;;;;;27.20;18.05;;;;;;;7.50;100.00;95086.66;5078257;28;20033;-87
2023/12/29 09:38:47;;;;;;;12.32;7.25;;;;;;;7.56;100.00;95093.56;5078198;28;20456;-87
2023/12/29 09:41:16;;;;;;;25.60;18.83;;;;;;;7.78;100.00;95091.13;5078190;28;20028;-87
2023/12/29 09:43:44;;;;;;;28.30;20.63;;;;;;;7.82;100.00;95094.09;5083875;28;20028;-88
2023/12/29 09:46:10;;;;;;;10.57;7.10;;;;;;;7.81;100.00;95083.88;5082389;28;20031;-87
2023/12/29 09:48:36;;;;;;;10.57;4.82;;;;;;;7.89;100.00;95083.50;5097739;28;20473;-88
2023/12/29 09:51:03;;;;;;;9.77;5.78;;;;;;;7.91;100.00;95078.84;5079885;28;20100;-87
2023/12/29 09:53:30;;;;;;;8.23;5.22;;;;;;;7.97;100.00;95080.53;5077866;28;20024;-88
2023/12/29 09:55:57;;;;;;;6.97;3.65;;;;;;;8.02;100.00;95070.16;5077881;28;20127;-88
2023/12/29 09:58:25;;;;;;;5.60;3.70;;;;;;;8.16;100.00;95072.50;5077354;28;20032;-88
2023/12/29 10:00:51;;;;;;;6.60;3.60;;;;;;;8.18;100.00;95073.09;5079331;28;20036;-88
2023/12/29 10:03:17;;;;;;;6.68;4.05;;;;;;;8.23;100.00;95065.34;5081628;28;20409;-88
2023/12/29 10:05:44;;;;;;;10.07;4.97;;;;;;;8.33;100.00;95069.94;5097923;28;20048;-87
2023/12/29 10:08:10;;;;;;;9.52;5.50;;;;;;;8.35;100.00;95067.88;5081102;28;20110;-88
2023/12/29 10:10:37;;;;;;;9.27;4.65;;;;;;;8.50;100.00;95067.38;5081085;28;20055;-88
2023/12/29 10:13:04;;;;;;;6.07;3.80;;;;;;;8.62;100.00;95059.47;5079738;28;20067;-88
2023/12/29 10:15:41;;;;;;;13.88;9.93;;;;;;;8.78;100.00;95063.13;5077431;28;20060;-88
2023/12/29 10:18:18;;;;;;;10.15;5.95;;;;;;;8.79;100.00;95062.09;5085144;28;20024;-87
2023/12/29 10:21:01;;;;;;;22.15;14.15;;;;;;;8.75;100.00;95061.75;5080769;28;20389;-89
2023/12/29 10:23:33;;;;;;;50.90;20.30;;;;;;;8.74;100.00;95064.59;5097655;28;20027;-88
2023/12/29 10:25:58;;;;;;;6.88;3.55;;;;;;;8.67;100.00;95064.75;5097570;28;20016;-89
2023/12/29 10:28:24;;;;;;;9.80;5.05;;;;;;;8.89;100.00;95056.22;5076800;28;20027;-88
2023/12/29 10:30:49;;;;;;;10.35;4.78;;;;;;;8.90;100.00;95057.78;5077366;28;20032;-89
2023/12/29 10:33:21;;;;;;;7.97;4.10;;;;;;;8.98;100.00;95056.59;5076820;28;20190;-89
2023/12/29 10:36:02;;;;;;;7.90;3.17;;;;;;;9.04;100.00;95051.19;5093653;28;20029;-89
2023/12/29 10:38:27;;;;;;;6.10;3.40;;;;;;;9.12;100.00;95044.00;5061011;28;20028;-89
2023/12/29 10:40:53;;;;;;;5.50;2.83;;;;;;;9.08;100.00;95038.44;5060950;28;20025;-90
2023/12/29 10:43:23;;;;;;;10.15;3.20;;;;;;;9.13;100.00;95029.88;5076801;28;20447;-89
2023/12/29 10:45:48;;;;;;;5.00;3.40;;;;;;;9.16;100.00;95026.78;5070985;28;20013;-89
2023/12/29 10:48:23;;;;;;;5.28;2.95;;;;;;;9.39;100.00;95023.16;5096458;28;20444;-92
2023/12/29 10:50:49;;;;;;;7.68;4.05;;;;;;;9.33;100.00;95021.53;5080374;28;20051;-92
2023/12/29 10:53:18;;;;;;;11.75;4.53;;;;;;;9.38;100.00;95023.38;5080120;28;20028;-91
2023/12/29 10:55:43;;;;;;;11.00;3.95;;;;;;;9.53;100.00;95020.16;5062772;28;20032;-91
2023/12/29 10:58:09;;;;;;;5.22;2.65;;;;;;;9.59;100.00;95019.19;5059916;28;20038;-90
2023/12/29 11:00:42;;;;;;;8.85;4.43;;;;;;;9.66;100.00;95011.94;5059810;28;20135;-92
2023/12/29 11:03:09;;;;;;;156.40;70.47;;;;;;;9.47;100.00;95016.69;5061094;28;20032;-91
2023/12/29 11:05:37;;;;;;;63.13;27.73;;;;;;;9.19;100.00;95014.03;5077138;28;20143;-91
2023/12/29 11:08:15;;;;;;;132.77;55.20;;;;;;;9.28;100.00;95009.16;5059676;28;20063;-91
2023/12/29 11:10:44;;;;;;;26.05;12.48;;;;;;;9.46;100.00;95007.28;5064030;28;20047;-91
2023/12/29 11:13:13;;;;;;;14.55;5.22;;;;;;;9.55;100.00;95005.03;5079790;28;20036;-91
2023/12/29 11:15:44;;;;;;;9.75;4.50;;;;;;;9.66;100.00;95000.69;5079931;28;20031;-92
2023/12/29 11:18:13;;;;;;;7.65;3.00;;;;;;;9.83;100.00;94987.53;5096262;28;20032;-91
2023/12/29 11:20:39;;;;;;;4.43;2.80;;;;;;;9.96;100.00;94987.13;5079531;28;20038;-91
2023/12/29 11:23:07;;;;;;;5.22;2.08;;;;;;;9.91;100.00;94989.72;5096171;28;20106;-92